Latest Weather Observations for Mount Crawford

IDS60901

Issued at 12:01 pm CST Wednesday 31 August 2016 (issued every 10 minutes, with the page automatically refreshed every 10 minutes)

About weather observations | Map of Adelaide area stations | Latest observations for Adelaide area | Other Formats
Station Details ID: 023878 Name: MOUNT CRAWFORD AWS Lat: -34.73 Lon: 138.93 Height: 525.0 m
Data from the previous 72 hours. | See also: Recent months at Mount Crawford
Date/Time
CST
Temp
°C
App
Temp
°C
Dew
Point
°C
Rel
Hum
%
Delta-T
°C
Wind Press
QNH
hPa
Press
MSL
hPa
Rain since
9am
mm
Dir  Spd
km/h
Gust
km/h
Spd
kts
Gust
kts
31/12:00pm 10.5 - - - - WSW 28 41 15 22 1017.2 1017.4 0.0
31/11:30am 10.0 - - - - WSW 28 39 15 21 1017.3 1017.5 0.0
31/11:00am 9.7 - - - - WSW 26 35 14 19 1017.5 1017.7 0.0
31/10:30am 9.6 - - - - W 24 33 13 18 1017.5 1017.7 0.0
31/10:00am 9.2 - - - - W 22 32 12 17 1017.5 1017.7 0.0
31/09:30am 9.0 - - - - W 26 37 14 20 1017.4 1017.6 0.0
31/09:06am 8.9 - - - - W 28 46 15 25 1017.1 1017.3 0.0
31/09:00am 9.0 - - - - W 32 46 17 25 1016.9 1017.2 5.2
31/08:31am 8.8 - - - - W 30 48 16 26 1016.8 1017.1 5.2
31/08:30am 8.8 - - - - W 32 48 17 26 1016.7 1017.0 5.2
31/08:00am 8.8 - - - - W 30 43 16 23 1016.4 1016.7 5.2
31/07:30am 8.8 - - - - W 28 43 15 23 1016.0 1016.2 5.2
31/07:00am 8.9 - - - - W 28 39 15 21 1015.7 1015.9 5.2
31/06:30am 8.9 - - - - W 30 43 16 23 1015.3 1015.5 5.2
31/06:00am 8.8 - - - - WSW 30 41 16 22 1014.7 1015.0 5.2
31/05:44am 8.8 - - - - W 30 48 16 26 1014.5 1014.8 5.2
31/05:30am 8.9 - - - - W 32 44 17 24 1014.3 1014.5 5.0
31/05:00am 8.8 - - - - WSW 28 44 15 24 1014.1 1014.3 5.0
31/04:30am 8.8 - - - - W 33 46 18 25 1014.0 1014.2 4.8
31/04:00am 8.9 - - - - W 32 44 17 24 1013.7 1013.9 4.6
31/03:40am 9.0 - - - - W 30 48 16 26 1013.7 1013.9 4.4
31/03:30am 8.9 - - - - W 32 48 17 26 1013.5 1013.7 4.2
31/03:00am 9.1 - - - - W 30 44 16 24 1013.5 1013.7 4.2
31/02:30am 9.1 3.6 9.1 100 0.0 W 28 41 15 22 1013.5 1013.7 3.8
31/02:00am 9.2 3.7 9.2 100 0.0 W 28 44 15 24 1013.6 1013.8 3.8
31/01:30am 9.3 4.6 9.3 100 0.0 W 24 39 13 21 1013.8 1014.0 3.8
31/01:00am 9.4 4.0 9.4 100 0.0 W 28 44 15 24 1013.9 1014.1 3.8
31/12:30am 9.5 4.5 9.5 100 0.0 W 26 41 14 22 1013.6 1013.8 3.8
31/12:00am 9.5 4.9 9.5 100 0.0 W 24 33 13 18 1013.4 1013.6 3.8
 
Date/Time
CST
Temp
°C
App
Temp
°C
Dew
Point
°C
Rel
Hum
%
Delta-T
°C
Wind Press
QNH
hPa
Press
MSL
hPa
Rain since
9am
mm
Dir  Spd
km/h
Gust
km/h
Spd
kts
Gust
kts
30/11:30pm 9.5 4.9 9.5 100 0.0 W 24 33 13 18 1013.3 1013.5 3.8
30/11:00pm 9.5 4.5 9.5 100 0.0 W 26 35 14 19 1013.1 1013.3 3.8
30/10:30pm 9.6 4.2 9.6 100 0.0 W 28 35 15 19 1013.1 1013.3 3.8
30/10:00pm 9.7 5.5 9.7 100 0.0 WNW 22 32 12 17 1013.5 1013.7 3.8
30/09:30pm 9.6 5.7 9.6 100 0.0 WNW 20 28 11 15 1013.4 1013.6 3.8
30/09:00pm 9.6 5.9 9.5 99 0.1 WNW 19 28 10 15 1013.3 1013.5 3.8
30/08:30pm 10.0 5.8 9.9 99 0.1 NW 22 33 12 18 1012.9 1013.2 3.8
30/08:00pm 10.0 6.2 9.9 99 0.1 NW 20 26 11 14 1012.7 1012.9 3.8
30/07:30pm 11.2 7.5 9.5 89 0.9 NW 19 26 10 14 1012.2 1012.4 3.8
30/07:00pm 11.5 8.3 9.8 89 0.9 NW 17 22 9 12 1012.0 1012.2 3.8
30/06:30pm 11.7 9.1 9.3 85 1.2 NW 13 17 7 9 1011.7 1011.9 3.8
30/06:00pm 11.0 9.2 10.8 99 0.1 NW 11 15 6 8 1011.7 1011.9 3.8
30/05:30pm 11.3 7.5 11.1 99 0.1 NW 22 32 12 17 1011.5 1011.7 3.8
30/05:00pm 12.9 9.9 10.8 87 1.1 NW 17 22 9 12 1010.8 1011.0 1.6
30/04:30pm 14.0 12.0 13.8 99 0.1 W 17 24 9 13 1010.4 1010.6 1.6
30/04:00pm 14.4 11.8 13.3 93 0.6 W 19 26 10 14 1010.2 1010.4 1.4
30/03:30pm 14.5 11.9 13.7 95 0.5 W 20 33 11 18 1010.2 1010.4 1.4
30/03:00pm 14.6 12.1 14.0 96 0.3 WNW 20 30 11 16 1010.5 1010.7 1.4
30/02:30pm 14.4 12.6 14.4 100 0.0 NW 17 24 9 13 1010.8 1011.0 1.4
30/02:00pm 13.6 12.3 13.6 100 0.0 WNW 13 19 7 10 1010.9 1011.1 1.4
30/01:30pm 13.1 - - - - NW 17 22 9 12 1011.2 1011.4 1.4
30/01:00pm 12.9 - - - - WNW 19 28 10 15 1011.5 1011.7 1.4
30/12:30pm 12.1 - - - - WNW 17 22 9 12 1011.8 1012.0 1.4
30/12:00pm 11.8 - - - - WNW 19 30 10 16 1011.9 1012.1 1.4
30/11:30am 12.0 - - - - WNW 22 37 12 20 1011.9 1012.1 1.4
30/11:00am 11.7 - - - - WNW 20 32 11 17 1012.0 1012.2 1.4
30/10:30am 11.5 - - - - NW 19 24 10 13 1011.9 1012.1 1.4
30/10:00am 11.4 7.7 11.4 100 0.0 NW 22 30 12 16 1012.2 1012.4 1.4
30/09:30am 11.1 7.3 11.1 100 0.0 NW 22 28 12 15 1012.4 1012.6 1.2
30/09:00am 10.9 7.4 10.9 100 0.0 NW 20 30 11 16 1012.5 1012.7 12.6
30/08:30am 10.8 6.9 10.8 100 0.0 NNW 22 28 12 15 1012.5 1012.7 11.2
30/08:00am 10.6 6.3 10.6 100 0.0 N 24 32 13 17 1012.3 1012.5 10.2
30/07:30am 10.5 6.1 10.5 100 0.0 NNW 24 33 13 18 1012.0 1012.2 8.8
30/07:00am 10.3 5.5 10.3 100 0.0 N 26 35 14 19 1011.7 1011.9 7.6
30/06:30am 10.2 5.0 10.2 100 0.0 N 28 39 15 21 1011.6 1011.8 7.2
30/06:00am 10.3 5.1 10.3 100 0.0 N 28 44 15 24 1011.6 1011.8 7.0
30/05:30am 10.5 5.4 10.5 100 0.0 N 28 37 15 20 1011.6 1011.8 7.0
30/05:14am 10.7 5.6 10.7 100 0.0 N 28 46 15 25 1011.5 1011.7 7.0
30/05:00am 10.4 5.2 10.4 100 0.0 N 28 37 15 20 1011.4 1011.6 7.0
30/04:30am 9.8 4.1 9.8 100 0.0 NNE 30 39 16 21 1011.9 1012.1 7.0
30/04:00am 9.8 3.5 9.8 100 0.0 NNE 33 48 18 26 1011.9 1012.1 6.8
30/03:30am 9.8 4.5 9.8 100 0.0 NNE 28 41 15 22 1012.3 1012.5 6.2
30/03:00am 10.0 4.7 10.0 100 0.0 N 28 37 15 20 1012.5 1012.7 5.6
30/02:30am 9.7 4.0 9.7 100 0.0 NNE 30 43 16 23 1012.5 1012.7 5.4
30/02:00am 10.1 3.5 10.0 99 0.1 NNE 35 46 19 25 1013.5 1013.7 4.4
30/01:31am 10.7 4.5 9.9 95 0.4 N 33 52 18 28 1013.5 1013.7 4.0
30/01:30am 10.7 4.1 9.9 95 0.4 N 35 52 19 28 1013.5 1013.7 4.0
30/01:04am 10.5 4.9 10.3 99 0.1 N 30 54 16 29 1012.7 1012.9 4.0
30/01:00am 10.2 5.3 10.1 99 0.1 N 26 39 14 21 1013.2 1013.4 4.0
30/12:49am 10.0 5.5 9.9 99 0.1 N 24 48 13 26 1013.1 1013.3 4.0
30/12:30am 10.3 4.3 10.1 99 0.1 NNW 32 46 17 25 1013.6 1013.8 4.0
30/12:14am 10.6 3.6 10.1 97 0.3 NNW 37 56 20 30 1013.3 1013.5 4.0
30/12:10am 10.7 4.1 9.9 95 0.4 NNW 35 50 19 27 1013.4 1013.6 4.0
30/12:00am 11.1 3.7 9.7 91 0.7 N 39 57 21 31 1013.1 1013.3 4.0
 
Date/Time
CST
Temp
°C
App
Temp
°C
Dew
Point
°C
Rel
Hum
%
Delta-T
°C
Wind Press
QNH
hPa
Press
MSL
hPa
Rain since
9am
mm
Dir  Spd
km/h
Gust
km/h
Spd
kts
Gust
kts
29/11:30pm 11.8 4.3 9.5 86 1.2 N 39 57 21 31 1012.5 1012.7 4.0
29/11:00pm 11.2 4.6 10.0 92 0.6 NNE 35 54 19 29 1013.3 1013.5 4.0
29/10:30pm 11.3 3.8 9.6 89 0.9 NNE 39 59 21 32 1013.5 1013.7 3.8
29/10:00pm 11.0 3.1 9.4 90 0.8 NNE 41 59 22 32 1013.4 1013.6 3.8
29/09:30pm 11.1 3.7 9.9 92 0.6 NE 39 59 21 32 1012.7 1012.9 3.8
29/09:00pm 10.8 2.7 10.0 95 0.4 NE 43 63 23 34 1012.6 1012.8 3.8
29/08:33pm 10.9 5.0 10.4 97 0.3 NE 32 50 17 27 1013.4 1013.6 3.8
29/08:30pm 10.9 5.0 10.4 97 0.3 NE 32 43 17 23 1013.6 1013.8 3.8
29/08:00pm 11.0 4.9 10.5 97 0.3 NE 33 46 18 25 1013.7 1013.9 3.8
29/07:30pm 10.8 3.6 10.6 99 0.1 NE 39 56 21 30 1013.6 1013.8 3.8
29/07:07pm 10.8 4.9 10.6 99 0.1 NE 32 50 17 27 1013.7 1013.9 3.8
29/07:00pm 10.7 4.6 10.5 99 0.1 NE 33 46 18 25 1013.9 1014.1 3.8
29/06:41pm 11.0 5.6 10.8 99 0.1 NE 30 48 16 26 1013.7 1013.9 3.8
29/06:30pm 10.8 5.7 10.5 98 0.2 NE 28 37 15 20 1013.7 1013.9 3.6
29/06:00pm 11.1 4.6 10.2 94 0.5 NE 35 48 19 26 1013.3 1013.5 3.2
29/05:40pm 11.4 6.1 9.7 89 0.9 NE 28 43 15 23 1013.7 1013.9 2.8
29/05:30pm 11.4 7.5 9.3 87 1.1 NNE 20 24 11 13 1014.1 1014.3 2.2
29/05:00pm 11.0 4.1 8.9 87 1.1 NE 35 46 19 25 1013.4 1013.6 1.4
29/04:39pm 11.6 5.1 9.0 84 1.3 NE 33 54 18 29 1012.8 1013.1 0.8
29/04:30pm 11.3 5.0 8.9 85 1.2 NE 32 39 17 21 1012.7 1012.9 0.8
29/04:00pm 11.9 6.3 8.6 80 1.7 NE 28 39 15 21 1012.4 1012.6 0.4
29/03:30pm 14.4 6.5 6.0 57 4.1 NE 37 46 20 25 1012.6 1012.8 0.0
29/03:00pm 14.9 7.7 5.1 52 4.8 NE 32 46 17 25 1012.7 1012.9 0.0
29/02:30pm 15.4 7.7 5.3 51 4.9 NE 35 54 19 29 1012.7 1012.9 0.0
29/02:00pm 15.3 5.9 5.5 52 4.8 NE 44 63 24 34 1012.2 1012.4 0.0
29/01:37pm 16.0 7.6 5.6 50 5.1 NE 39 57 21 31 1012.7 1012.9 0.0
29/01:30pm 15.9 8.3 7.7 58 4.2 NE 37 52 20 28 1012.8 1013.1 0.0
29/01:00pm 15.0 6.7 6.0 55 4.4 NE 39 54 21 29 1013.3 1013.5 0.0
29/12:39pm 15.7 8.0 3.5 44 5.8 NNE 33 52 18 28 1013.9 1014.1 0.0
29/12:30pm 16.4 9.2 5.1 47 5.5 NNE 32 44 17 24 1014.2 1014.4 0.0
29/12:05pm 15.5 8.6 4.6 48 5.3 NE 30 50 16 27 1014.2 1014.4 0.0
29/12:00pm 15.6 9.2 5.2 50 5.1 NE 28 43 15 23 1014.4 1014.7 0.0
29/11:32am 14.1 5.9 2.7 46 5.2 NNE 35 54 19 29 1014.7 1015.0 0.0
29/11:30am 14.1 6.0 3.3 48 5.0 NNE 35 46 19 25 1014.8 1015.1 0.0
29/11:00am 14.4 6.9 3.5 48 5.1 NNE 32 52 17 28 1015.5 1015.7 0.0
29/10:52am 14.4 6.6 2.9 46 5.3 NE 33 52 18 28 1015.1 1015.3 0.0
29/10:30am 15.4 6.4 2.2 41 6.0 NNE 39 52 21 28 1015.2 1015.4 0.0
29/10:00am 13.4 6.2 3.2 50 4.7 NNE 30 43 16 23 1016.2 1016.5 0.0
29/09:30am 12.9 5.6 2.7 50 4.6 NNE 30 41 16 22 1016.6 1016.9 0.0
29/09:00am 12.3 4.6 3.3 54 4.1 NNE 33 46 18 25 1016.6 1016.9 0.8
29/08:30am 12.0 5.9 3.0 54 4.1 NNE 24 33 13 18 1016.6 1016.9 0.8
29/08:00am 11.8 5.3 2.5 53 4.2 NNE 26 35 14 19 1016.2 1016.5 0.8
29/07:30am 11.1 4.0 3.4 59 3.5 NE 30 41 16 22 1015.5 1015.7 0.8
29/07:00am 10.7 3.9 3.3 60 3.3 NE 28 39 15 21 1015.6 1015.8 0.8
29/06:30am 9.9 3.6 3.9 66 2.7 NE 26 32 14 17 1015.5 1015.7 0.8
29/06:00am 10.5 3.6 2.6 58 3.5 NE 28 39 15 21 1015.3 1015.5 0.6
29/05:30am 10.2 4.9 3.0 61 3.2 NE 20 28 11 15 1014.9 1015.2 0.6
29/05:00am 9.9 4.8 3.9 66 2.7 ENE 20 24 11 13 1014.9 1015.2 0.6
29/04:30am 10.2 5.8 4.6 68 2.6 NE 17 22 9 12 1014.7 1015.0 0.6
29/04:00am 9.3 4.4 5.3 76 1.9 ENE 20 30 11 16 1014.5 1014.8 0.6
29/03:30am 10.4 6.8 5.2 70 2.4 NE 13 15 7 8 1015.1 1015.3 0.6
29/03:00am 11.0 6.6 4.5 64 3.0 N 17 24 9 13 1015.8 1016.0 0.6
29/02:30am 11.0 6.3 3.3 59 3.5 NE 17 22 9 12 1016.1 1016.4 0.2
29/02:00am 11.6 6.9 2.9 55 3.9 N 17 24 9 13 1016.3 1016.6 0.2
29/01:30am 12.9 7.1 0.0 41 5.5 NNE 20 28 11 15 1016.3 1016.6 0.0
29/01:00am 12.8 6.8 1.2 45 5.1 NNE 22 32 12 17 1016.2 1016.5 0.0
29/12:30am 13.8 6.1 -0.3 38 6.0 NNE 30 43 16 23 1015.9 1016.1 0.0
29/12:00am 13.1 6.1 -0.2 40 5.7 NE 26 39 14 21 1015.9 1016.1 0.0
 
Date/Time
CST
Temp
°C
App
Temp
°C
Dew
Point
°C
Rel
Hum
%
Delta-T
°C
Wind Press
QNH
hPa
Press
MSL
hPa
Rain since
9am
mm
Dir  Spd
km/h
Gust
km/h
Spd
kts
Gust
kts
28/11:30pm 12.7 5.4 -0.2 41 5.5 NE 28 37 15 20 1015.8 1016.0 0.0
28/11:18pm 13.0 4.9 -0.3 40 5.6 NE 32 50 17 27 1015.8 1016.0 0.0
28/11:00pm 13.5 4.4 -0.9 37 6.1 NNE 37 52 20 28 1015.8 1016.0 0.0
28/10:38pm 13.6 4.9 -0.8 37 6.1 NNE 35 56 19 30 1015.8 1016.0 0.0
28/10:30pm 13.5 4.8 -0.5 38 5.9 NNE 35 50 19 27 1016.0 1016.2 0.0
28/10:16pm 13.7 5.0 -0.7 37 6.1 NNE 35 56 19 30 1015.9 1016.1 0.0
28/10:00pm 13.2 4.5 -0.4 39 5.8 NE 35 44 19 24 1015.8 1016.0 0.0
28/09:36pm 13.2 4.6 0.3 41 5.6 NE 35 56 19 30 1015.6 1015.8 0.0
28/09:30pm 13.0 4.4 0.4 42 5.4 NE 35 48 19 26 1015.6 1015.8 0.0
28/09:02pm 13.3 5.7 0.3 41 5.6 NE 30 48 16 26 1015.7 1015.9 0.0
28/09:00pm 13.2 5.6 0.6 42 5.5 NE 30 43 16 23 1015.8 1016.0 0.0
28/08:30pm 13.0 5.5 1.0 44 5.2 NE 30 44 16 24 1015.5 1015.7 0.0
28/08:00pm 13.2 5.3 0.9 43 5.4 NE 32 39 17 21 1015.4 1015.6 0.0
28/07:30pm 13.0 5.2 1.4 45 5.1 NE 32 43 17 23 1015.3 1015.5 0.0
28/07:00pm 13.0 6.0 1.7 46 5.0 NE 28 35 15 19 1015.4 1015.6 0.0
28/06:30pm 13.7 6.7 1.7 44 5.4 NE 28 39 15 21 1015.1 1015.3 0.0
28/06:00pm 13.5 7.2 1.8 45 5.2 NE 24 32 13 17 1014.7 1015.0 0.0
28/05:30pm 14.0 8.8 2.3 45 5.3 NE 19 28 10 15 1014.4 1014.7 0.0
28/05:00pm 14.6 7.2 1.8 42 5.8 NE 30 41 16 22 1013.8 1014.0 0.0
28/04:45pm 14.5 6.8 2.4 44 5.5 NE 32 50 17 27 1013.7 1013.9 0.0
28/04:30pm 14.8 6.9 2.4 43 5.7 NE 33 46 18 25 1013.9 1014.1 0.0
28/04:00pm 15.1 6.8 2.0 41 6.0 NE 35 44 19 24 1014.3 1014.5 0.0
28/03:35pm 15.5 8.5 2.0 40 6.2 NE 28 46 15 25 1014.4 1014.7 0.0
28/03:30pm 15.9 9.8 3.0 42 6.0 NE 24 35 13 19 1014.4 1014.7 0.0
28/03:00pm 16.0 10.1 3.8 44 5.8 NE 24 35 13 19 1014.5 1014.8 0.0
28/02:30pm 16.1 10.7 4.5 46 5.6 NE 22 35 12 19 1014.5 1014.8 0.0
28/02:00pm 16.0 9.5 4.7 47 5.5 NNE 28 37 15 20 1014.8 1015.1 0.0
28/01:30pm 15.8 9.3 4.8 48 5.3 NNE 28 35 15 19 1015.3 1015.5 0.0
28/01:00pm 15.9 10.0 5.8 51 5.0 NNE 26 39 14 21 1015.8 1016.0 0.0
28/12:30pm 15.7 10.0 5.0 49 5.2 N 24 39 13 21 1016.5 1016.8 0.0

Latest Capital City Observations: Canberra | Sydney | Melbourne | Brisbane | Adelaide | Perth | Hobart | Darwin

Other Formats:

Comma delimited format used in spreadsheet applications
http://www.bom.gov.au/fwo/IDS60901/IDS60901.94678.axf

JavaScript Object Notation format (JSON) in row-major order
http://www.bom.gov.au/fwo/IDS60901/IDS60901.94678.json